sensor_id;sensor_type;location;lat;lon;timestamp;pressure;altitude;pressure_sealevel;temperature;humidity
17950;BME280;9100;48.700;9.316;2022-07-06T00:00:18;98295.7;;;21.37;61.772
17950;BME280;9100;48.700;9.316;2022-07-06T00:01:18;98299.5;;;21.34;62.392
17950;BME280;9100;48.700;9.316;2022-07-06T00:02:18;98307.6;;;21.33;62.236
17950;BME280;9100;48.700;9.316;2022-07-06T00:03:18;98298.1;;;21.26;62.762
17950;BME280;9100;48.700;9.316;2022-07-06T00:03:41;98305.4;;;21.29;62.93
17950;BME280;9100;48.700;9.316;2022-07-06T00:04:18;98301.3;;;21.28;63.026
17950;BME280;9100;48.700;9.316;2022-07-06T00:05:18;98304.3;;;21.25;62.554
17950;BME280;9100;48.700;9.316;2022-07-06T00:06:18;98306.6;;;21.22;62.668
17950;BME280;9100;48.700;9.316;2022-07-06T00:07:18;98299;;;21.2;63.46
17950;BME280;9100;48.700;9.316;2022-07-06T00:08:18;98303.7;;;21.18;63.315
17950;BME280;9100;48.700;9.316;2022-07-06T00:08:41;98297.90000000001;;;21.16;63.39
17950;BME280;9100;48.700;9.316;2022-07-06T00:09:18;98302.9;;;21.18;63.196
17950;BME280;9100;48.700;9.316;2022-07-06T00:10:18;98297.1;;;21.16;63.193
17950;BME280;9100;48.700;9.316;2022-07-06T00:11:18;98308.5;;;21.15;63.257
17950;BME280;9100;48.700;9.316;2022-07-06T00:12:18;98303.3;;;21.15;63.595
17950;BME280;9100;48.700;9.316;2022-07-06T00:13:18;98248.5;;;20.81;64.136
17950;BME280;9100;48.700;9.316;2022-07-06T00:13:41;98297.6;;;21.13;64.137
17950;BME280;9100;48.700;9.316;2022-07-06T00:14:18;98300.7;;;21.15;63.943
17950;BME280;9100;48.700;9.316;2022-07-06T00:15:18;98300.2;;;21.13;63.505
17950;BME280;9100;48.700;9.316;2022-07-06T00:16:18;98296.8;;;21.12;63.656
17950;BME280;9100;48.700;9.316;2022-07-06T00:17:18;98293.4;;;21.12;63.872
17950;BME280;9100;48.700;9.316;2022-07-06T00:18:18;98298.8;;;21.1;63.632
17950;BME280;9100;48.700;9.316;2022-07-06T00:18:41;98294.6;;;21.09;63.598
17950;BME280;9100;48.700;9.316;2022-07-06T00:19:18;98289.20000000001;;;21.11;63.666
17950;BME280;9100;48.700;9.316;2022-07-06T00:20:18;98297.2;;;21.09;64.153
17950;BME280;9100;48.700;9.316;2022-07-06T00:21:18;98295.6;;;21.08;64.652
17950;BME280;9100;48.700;9.316;2022-07-06T00:22:18;98294;;;21.07;64.499
17950;BME280;9100;48.700;9.316;2022-07-06T00:23:18;98289.9;;;21.06;64.138
17950;BME280;9100;48.700;9.316;2022-07-06T00:23:41;98296.1;;;21.05;64.169
17950;BME280;9100;48.700;9.316;2022-07-06T00:24:18;98302.9;;;21.06;64.159
17950;BME280;9100;48.700;9.316;2022-07-06T00:25:18;98296.1;;;21.05;64.147
17950;BME280;9100;48.700;9.316;2022-07-06T00:26:18;98291.9;;;21.04;64.69
17950;BME280;9100;48.700;9.316;2022-07-06T00:27:18;98294;;;21.02;63.937
17950;BME280;9100;48.700;9.316;2022-07-06T00:28:18;98290.8;;;21;64.141
17950;BME280;9100;48.700;9.316;2022-07-06T00:28:41;98297.6;;;21.01;64.26
17950;BME280;9100;48.700;9.316;2022-07-06T00:29:18;98293.2;;;21.02;64.251
17950;BME280;9100;48.700;9.316;2022-07-06T00:30:18;98295;;;21.01;64.141
17950;BME280;9100;48.700;9.316;2022-07-06T00:31:18;98292.6;;;21;63.866
17950;BME280;9100;48.700;9.316;2022-07-06T00:32:18;98289.4;;;20.98;63.875
17950;BME280;9100;48.700;9.316;2022-07-06T00:33:18;98288.9;;;20.96;64.264
17950;BME280;9100;48.700;9.316;2022-07-06T00:33:41;98295.9;;;20.95;64.273
17950;BME280;9100;48.700;9.316;2022-07-06T00:34:18;98301.09999999999;;;20.95;64.143
17950;BME280;9100;48.700;9.316;2022-07-06T00:35:18;98292.7;;;20.93;63.922
17950;BME280;9100;48.700;9.316;2022-07-06T00:36:18;98296.3;;;20.92;63.998
17950;BME280;9100;48.700;9.316;2022-07-06T00:37:18;98300.2;;;20.9;64.114
17950;BME280;9100;48.700;9.316;2022-07-06T00:38:18;98301.4;;;20.87;63.99
17950;BME280;9100;48.700;9.316;2022-07-06T00:38:41;98299.90000000001;;;20.86;64.119
17950;BME280;9100;48.700;9.316;2022-07-06T00:39:18;98301.4;;;20.87;64.437
17950;BME280;9100;48.700;9.316;2022-07-06T00:40:18;98304;;;20.87;64.632
17950;BME280;9100;48.700;9.316;2022-07-06T00:41:18;98295.7;;;20.85;64.912
17950;BME280;9100;48.700;9.316;2022-07-06T00:42:18;98304.5;;;20.84;65.531
17950;BME280;9100;48.700;9.316;2022-07-06T00:43:18;98300.3;;;20.83;64.909
17950;BME280;9100;48.700;9.316;2022-07-06T00:43:46;98305.5;;;20.83;65.095
17950;BME280;9100;48.700;9.316;2022-07-06T00:44:18;98303.7;;;20.84;65.118
17950;BME280;9100;48.700;9.316;2022-07-06T00:45:18;98300.8;;;20.8;66.624
17950;BME280;9100;48.700;9.316;2022-07-06T00:46:18;98304.8;;;20.76;67.728
17950;BME280;9100;48.700;9.316;2022-07-06T00:47:18;98301.9;;;20.72;68.496
17950;BME280;9100;48.700;9.316;2022-07-06T00:48:18;98300.8;;;20.68;69.644
17950;BME280;9100;48.700;9.316;2022-07-06T00:48:41;98307.2;;;20.66;69.835
17950;BME280;9100;48.700;9.316;2022-07-06T00:49:18;98300.5;;;20.65;70.084
17950;BME280;9100;48.700;9.316;2022-07-06T00:50:19;98312.3;;;20.61;70.654
17950;BME280;9100;48.700;9.316;2022-07-06T00:51:18;98305.7;;;20.58;71.313
17950;BME280;9100;48.700;9.316;2022-07-06T00:52:18;98307;;;20.56;71.821
17950;BME280;9100;48.700;9.316;2022-07-06T00:53:18;98304.6;;;20.54;72.014
17950;BME280;9100;48.700;9.316;2022-07-06T00:53:41;98309.6;;;20.56;71.897
17950;BME280;9100;48.700;9.316;2022-07-06T00:54:18;98308;;;20.55;71.58
17950;BME280;9100;48.700;9.316;2022-07-06T00:55:19;98310;;;20.53;71.632
17950;BME280;9100;48.700;9.316;2022-07-06T00:56:18;98306.1;;;20.5;71.344
17950;BME280;9100;48.700;9.316;2022-07-06T00:57:18;98304.7;;;20.48;71.188
17950;BME280;9100;48.700;9.316;2022-07-06T00:58:18;98306;;;20.45;71.021
17950;BME280;9100;48.700;9.316;2022-07-06T00:58:41;98304.4;;;20.44;70.986
17950;BME280;9100;48.700;9.316;2022-07-06T00:59:18;98304.6;;;20.43;71.049
17950;BME280;9100;48.700;9.316;2022-07-06T01:00:19;98309.3;;;20.41;71.209
17950;BME280;9100;48.700;9.316;2022-07-06T01:01:18;98305.3;;;20.38;71.38
17950;BME280;9100;48.700;9.316;2022-07-06T01:02:18;98307.1;;;20.38;71.759
17950;BME280;9100;48.700;9.316;2022-07-06T01:03:18;98305;;;20.35;72.287
17950;BME280;9100;48.700;9.316;2022-07-06T01:03:41;98291.8;;;20.29;72.159
17950;BME280;9100;48.700;9.316;2022-07-06T01:04:18;98297.40000000001;;;20.33;72.045
17950;BME280;9100;48.700;9.316;2022-07-06T01:05:18;98300.8;;;20.33;72.884
17950;BME280;9100;48.700;9.316;2022-07-06T01:06:19;98297.40000000001;;;20.33;73.306
17950;BME280;9100;48.700;9.316;2022-07-06T01:07:18;98301.8;;;20.32;74.241
17950;BME280;9100;48.700;9.316;2022-07-06T01:08:18;98300.2;;;20.31;73.348
17950;BME280;9100;48.700;9.316;2022-07-06T01:08:41;98301.2;;;20.3;73.074
17950;BME280;9100;48.700;9.316;2022-07-06T01:09:18;98293.3;;;20.25;72.914
17950;BME280;9100;48.700;9.316;2022-07-06T01:10:19;98305.6;;;20.3;73.008
17950;BME280;9100;48.700;9.316;2022-07-06T01:11:18;98297.29999999999;;;20.28;73.243
17950;BME280;9100;48.700;9.316;2022-07-06T01:12:18;98306.8;;;20.27;73.222
17950;BME280;9100;48.700;9.316;2022-07-06T01:13:18;98297.5;;;20.26;72.816
17950;BME280;9100;48.700;9.316;2022-07-06T01:13:41;98297.7;;;20.25;72.651
17950;BME280;9100;48.700;9.316;2022-07-06T01:14:18;98302.9;;;20.25;72.706
17950;BME280;9100;48.700;9.316;2022-07-06T01:15:19;98304.7;;;20.24;73.28
17950;BME280;9100;48.700;9.316;2022-07-06T01:16:18;98302.09999999999;;;20.24;73.215
17950;BME280;9100;48.700;9.316;2022-07-06T01:17:18;98298.90000000001;;;20.22;72.93
17950;BME280;9100;48.700;9.316;2022-07-06T01:18:18;98306.7;;;20.22;73.049
17950;BME280;9100;48.700;9.316;2022-07-06T01:18:41;98304.1;;;20.22;73.157
17950;BME280;9100;48.700;9.316;2022-07-06T01:19:18;98302.3;;;20.23;73.04
17950;BME280;9100;48.700;9.316;2022-07-06T01:20:19;98303.59999999999;;;20.2;72.567
17950;BME280;9100;48.700;9.316;2022-07-06T01:21:18;98304.6;;;20.19;73.665
17950;BME280;9100;48.700;9.316;2022-07-06T01:22:18;98289.3;;;20.11;73.771
17950;BME280;9100;48.700;9.316;2022-07-06T01:23:18;98295.9;;;20.14;74.241
17950;BME280;9100;48.700;9.316;2022-07-06T01:23:41;98298.5;;;20.14;74.284
17950;BME280;9100;48.700;9.316;2022-07-06T01:24:18;98299.2;;;20.14;74.775
17950;BME280;9100;48.700;9.316;2022-07-06T01:25:18;98299.2;;;20.14;74.928
17950;BME280;9100;48.700;9.316;2022-07-06T01:26:19;98300.3;;;20.13;74.904
17950;BME280;9100;48.700;9.316;2022-07-06T01:27:18;98296.90000000001;;;20.13;75.328
17950;BME280;9100;48.700;9.316;2022-07-06T01:28:18;98302.9;;;20.13;75.839
17950;BME280;9100;48.700;9.316;2022-07-06T01:28:41;98305.7;;;20.12;75.89
17950;BME280;9100;48.700;9.316;2022-07-06T01:29:18;98305.5;;;20.13;75.839
17950;BME280;9100;48.700;9.316;2022-07-06T01:30:19;98305.5;;;20.13;75.795
17950;BME280;9100;48.700;9.316;2022-07-06T01:31:19;98301.3;;;20.12;75.663
17950;BME280;9100;48.700;9.316;2022-07-06T01:32:18;98304.9;;;20.11;75.64
17950;BME280;9100;48.700;9.316;2022-07-06T01:33:18;98306.9;;;20.09;75.767
17950;BME280;9100;48.700;9.316;2022-07-06T01:33:41;98302.8;;;20.08;75.83
17950;BME280;9100;48.700;9.316;2022-07-06T01:34:18;98300.2;;;20.08;75.809
17950;BME280;9100;48.700;9.316;2022-07-06T01:35:18;98303.7;;;20.07;75.753
17950;BME280;9100;48.700;9.316;2022-07-06T01:36:18;98295.4;;;20.05;75.736
17950;BME280;9100;48.700;9.316;2022-07-06T01:37:18;98310;;;20.06;75.609
17950;BME280;9100;48.700;9.316;2022-07-06T01:38:18;98310.40000000001;;;20.03;75.017
17950;BME280;9100;48.700;9.316;2022-07-06T01:38:48;98311.40000000001;;;20.02;75.017
17950;BME280;9100;48.700;9.316;2022-07-06T01:39:18;98305.5;;;20.02;75.318
17950;BME280;9100;48.700;9.316;2022-07-06T01:40:18;98297.90000000001;;;20;75.676
17950;BME280;9100;48.700;9.316;2022-07-06T01:41:18;98298.29999999999;;;19.97;75.626
17950;BME280;9100;48.700;9.316;2022-07-06T01:42:18;98307.9;;;19.97;75.593
17950;BME280;9100;48.700;9.316;2022-07-06T01:43:18;98308.1;;;19.95;74.742
17950;BME280;9100;48.700;9.316;2022-07-06T01:43:41;98297.7;;;19.95;74.655
17950;BME280;9100;48.700;9.316;2022-07-06T01:44:18;98300.3;;;19.95;74.688
17950;BME280;9100;48.700;9.316;2022-07-06T01:45:18;98250.5;;;19.63;74.753
17950;BME280;9100;48.700;9.316;2022-07-06T01:46:18;98302.9;;;19.95;75.633
17950;BME280;9100;48.700;9.316;2022-07-06T01:47:18;98298.8;;;19.94;76.218
17950;BME280;9100;48.700;9.316;2022-07-06T01:48:18;98296.6;;;19.91;75.746
17950;BME280;9100;48.700;9.316;2022-07-06T01:48:41;98301;;;19.91;75.604
17950;BME280;9100;48.700;9.316;2022-07-06T01:49:18;98298.40000000001;;;19.91;75.679
17950;BME280;9100;48.700;9.316;2022-07-06T01:50:18;98293.7;;;19.88;76.023
17950;BME280;9100;48.700;9.316;2022-07-06T01:51:18;98296.8;;;19.9;76.223
17950;BME280;9100;48.700;9.316;2022-07-06T01:52:18;98295.3;;;19.89;76.187
17950;BME280;9100;48.700;9.316;2022-07-06T01:53:18;98296.3;;;19.88;76.414
17950;BME280;9100;48.700;9.316;2022-07-06T01:53:41;98297.29999999999;;;19.87;76.553
17950;BME280;9100;48.700;9.316;2022-07-06T01:54:18;98295.5;;;19.87;76.587
17950;BME280;9100;48.700;9.316;2022-07-06T01:55:18;98298.1;;;19.87;76.293
17950;BME280;9100;48.700;9.316;2022-07-06T01:56:18;98292.9;;;19.87;76.663
17950;BME280;9100;48.700;9.316;2022-07-06T01:57:18;98294.7;;;19.87;76.498
17950;BME280;9100;48.700;9.316;2022-07-06T01:58:19;98297.5;;;19.85;76.627
17950;BME280;9100;48.700;9.316;2022-07-06T01:58:41;98294.9;;;19.85;76.714
17950;BME280;9100;48.700;9.316;2022-07-06T01:59:18;98293.9;;;19.86;76.727
17950;BME280;9100;48.700;9.316;2022-07-06T02:00:18;98297.29999999999;;;19.87;77.236
17950;BME280;9100;48.700;9.316;2022-07-06T02:01:19;98301.70000000001;;;19.86;77.183
17950;BME280;9100;48.700;9.316;2022-07-06T02:02:18;98300.09999999999;;;19.85;76.616
17950;BME280;9100;48.700;9.316;2022-07-06T02:03:18;98300.5;;;19.82;76.75
17950;BME280;9100;48.700;9.316;2022-07-06T02:03:41;98303.3;;;19.8;76.412
17950;BME280;9100;48.700;9.316;2022-07-06T02:04:18;98305.4;;;19.78;76.539
17950;BME280;9100;48.700;9.316;2022-07-06T02:05:18;98299.8;;;19.75;77.979
17950;BME280;9100;48.700;9.316;2022-07-06T02:06:18;98305.5;;;19.72;79.86
17950;BME280;9100;48.700;9.316;2022-07-06T02:07:18;98299.2;;;19.68;81.754
17950;BME280;9100;48.700;9.316;2022-07-06T02:08:18;98303.2;;;19.64;83.18
17950;BME280;9100;48.700;9.316;2022-07-06T02:08:41;98307.8;;;19.62;83.534
17950;BME280;9100;48.700;9.316;2022-07-06T02:09:18;98305.4;;;19.6;84.171
17950;BME280;9100;48.700;9.316;2022-07-06T02:10:18;98305.6;;;19.59;84.853
17950;BME280;9100;48.700;9.316;2022-07-06T02:11:18;98301.70000000001;;;19.56;85.173
17950;BME280;9100;48.700;9.316;2022-07-06T02:12:18;98301.3;;;19.53;85.566
17950;BME280;9100;48.700;9.316;2022-07-06T02:13:18;98302.59999999999;;;19.5;85.78
17950;BME280;9100;48.700;9.316;2022-07-06T02:13:41;98309.79999999999;;;19.48;85.689
17950;BME280;9100;48.700;9.316;2022-07-06T02:14:18;98314.20000000001;;;19.48;85.611
17950;BME280;9100;48.700;9.316;2022-07-06T02:15:18;98308.2;;;19.47;86.415
17950;BME280;9100;48.700;9.316;2022-07-06T02:16:18;98307.6;;;19.45;87.04
17950;BME280;9100;48.700;9.316;2022-07-06T02:17:18;98311;;;19.46;87.409
17950;BME280;9100;48.700;9.316;2022-07-06T02:18:18;98304.2;;;19.45;87.613
17950;BME280;9100;48.700;9.316;2022-07-06T02:18:41;98306;;;19.44;87.722
17950;BME280;9100;48.700;9.316;2022-07-06T02:19:18;98305;;;19.45;87.908
17950;BME280;9100;48.700;9.316;2022-07-06T02:20:18;98301.59999999999;;;19.45;87.863
17950;BME280;9100;48.700;9.316;2022-07-06T02:21:18;98309.40000000001;;;19.45;88.341
17950;BME280;9100;48.700;9.316;2022-07-06T02:22:18;98299.5;;;19.42;87.749
17950;BME280;9100;48.700;9.316;2022-07-06T02:23:18;98306.7;;;19.39;87.724
17950;BME280;9100;48.700;9.316;2022-07-06T02:23:41;98302.5;;;19.38;87.688
17950;BME280;9100;48.700;9.316;2022-07-06T02:24:18;98304.1;;;19.39;87.593
17950;BME280;9100;48.700;9.316;2022-07-06T02:25:18;98306.9;;;19.38;88.393
17950;BME280;9100;48.700;9.316;2022-07-06T02:26:18;98309.7;;;19.36;88.401
17950;BME280;9100;48.700;9.316;2022-07-06T02:27:18;98302.20000000001;;;19.35;88.43
17950;BME280;9100;48.700;9.316;2022-07-06T02:28:18;98297.2;;;19.33;88.97
17950;BME280;9100;48.700;9.316;2022-07-06T02:28:41;98307.5;;;19.33;89.067
17950;BME280;9100;48.700;9.316;2022-07-06T02:29:18;98299.8;;;19.33;89.014
17950;BME280;9100;48.700;9.316;2022-07-06T02:30:18;98306.5;;;19.34;88.863
17950;BME280;9100;48.700;9.316;2022-07-06T02:31:18;98302.4;;;19.33;89.209
17950;BME280;9100;48.700;9.316;2022-07-06T02:32:18;98312.7;;;19.33;89.328
17950;BME280;9100;48.700;9.316;2022-07-06T02:33:18;98313.2;;;19.3;89.082
17950;BME280;9100;48.700;9.316;2022-07-06T02:33:41;98313.2;;;19.3;88.691
17950;BME280;9100;48.700;9.316;2022-07-06T02:34:18;98312.2;;;19.31;87.719
17950;BME280;9100;48.700;9.316;2022-07-06T02:35:18;98309.6;;;19.31;86.895
17950;BME280;9100;48.700;9.316;2022-07-06T02:36:18;98313.2;;;19.3;87.118
17950;BME280;9100;48.700;9.316;2022-07-06T02:37:18;98314.20000000001;;;19.29;87.509
17950;BME280;9100;48.700;9.316;2022-07-06T02:38:18;98310;;;19.28;87.396
17950;BME280;9100;48.700;9.316;2022-07-06T02:38:41;98317.8;;;19.28;87.57
17950;BME280;9100;48.700;9.316;2022-07-06T02:39:18;98314.4;;;19.28;87.874
17950;BME280;9100;48.700;9.316;2022-07-06T02:40:18;98314;;;19.24;87.931
17950;BME280;9100;48.700;9.316;2022-07-06T02:41:18;98314;;;19.24;87.66
17950;BME280;9100;48.700;9.316;2022-07-06T02:42:18;98326.4;;;19.22;87.808
17950;BME280;9100;48.700;9.316;2022-07-06T02:43:18;98317.1;;;19.21;87.958
17950;BME280;9100;48.700;9.316;2022-07-06T02:43:41;98329.2;;;19.21;87.708
17950;BME280;9100;48.700;9.316;2022-07-06T02:44:18;98320.7;;;19.2;87.663
17950;BME280;9100;48.700;9.316;2022-07-06T02:45:18;98316.5;;;19.19;88.258
17950;BME280;9100;48.700;9.316;2022-07-06T02:46:18;98321.7;;;19.19;88.887
17950;BME280;9100;48.700;9.316;2022-07-06T02:47:18;98323.7;;;19.17;89.382
17950;BME280;9100;48.700;9.316;2022-07-06T02:48:18;98329.7;;;19.18;89.522
17950;BME280;9100;48.700;9.316;2022-07-06T02:48:41;98328.09999999999;;;19.17;89.544
17950;BME280;9100;48.700;9.316;2022-07-06T02:49:18;98329.7;;;19.18;89.935
17950;BME280;9100;48.700;9.316;2022-07-06T02:50:18;98328.9;;;19.17;90.293
17950;BME280;9100;48.700;9.316;2022-07-06T02:51:18;98332.5;;;19.16;90.269
17950;BME280;9100;48.700;9.316;2022-07-06T02:52:18;98325.7;;;19.15;90.549
17950;BME280;9100;48.700;9.316;2022-07-06T02:53:18;98327.70000000001;;;19.13;90.296
17950;BME280;9100;48.700;9.316;2022-07-06T02:53:41;98332.1;;;19.13;90.241
17950;BME280;9100;48.700;9.316;2022-07-06T02:54:18;98332.1;;;19.13;90.188
17950;BME280;9100;48.700;9.316;2022-07-06T02:55:18;98331.3;;;19.12;90.38
17950;BME280;9100;48.700;9.316;2022-07-06T02:56:18;98323.6;;;19.12;90.326
17950;BME280;9100;48.700;9.316;2022-07-06T02:57:18;98323.6;;;19.12;90.185
17950;BME280;9100;48.700;9.316;2022-07-06T02:58:18;98327.70000000001;;;19.13;90.458
17950;BME280;9100;48.700;9.316;2022-07-06T02:58:41;98331.3;;;19.12;90.435
17950;BME280;9100;48.700;9.316;2022-07-06T02:59:18;98334.5;;;19.14;90.428
17950;BME280;9100;48.700;9.316;2022-07-06T03:00:18;98331.1;;;19.14;90.707
17950;BME280;9100;48.700;9.316;2022-07-06T03:01:18;98334.5;;;19.14;89.929
17950;BME280;9100;48.700;9.316;2022-07-06T03:02:18;98324;;;19.09;89.732
17950;BME280;9100;48.700;9.316;2022-07-06T03:03:18;98328.7;;;19.12;88.45
17950;BME280;9100;48.700;9.316;2022-07-06T03:03:41;98329.7;;;19.11;88.404
17950;BME280;9100;48.700;9.316;2022-07-06T03:04:18;98333.90000000001;;;19.12;88.439
17950;BME280;9100;48.700;9.316;2022-07-06T03:05:18;98333.90000000001;;;19.12;88.472
17950;BME280;9100;48.700;9.316;2022-07-06T03:06:18;98324.59999999999;;;19.11;88.708
17950;BME280;9100;48.700;9.316;2022-07-06T03:07:18;98327.4;;;19.1;88.661
17950;BME280;9100;48.700;9.316;2022-07-06T03:08:18;98334.40000000001;;;19.09;88.8
17950;BME280;9100;48.700;9.316;2022-07-06T03:08:41;98331;;;19.09;88.746
17950;BME280;9100;48.700;9.316;2022-07-06T03:09:18;98331.8;;;19.09;88.822
17950;BME280;9100;48.700;9.316;2022-07-06T03:10:18;98326.59999999999;;;19.09;88.691
17950;BME280;9100;48.700;9.316;2022-07-06T03:11:18;98331.8;;;19.09;88.562
17950;BME280;9100;48.700;9.316;2022-07-06T03:12:18;98334.79999999999;;;19.06;88.515
17950;BME280;9100;48.700;9.316;2022-07-06T03:13:18;98337.40000000001;;;19.06;88.286
17950;BME280;9100;48.700;9.316;2022-07-06T03:13:41;98328.7;;;19.01;88.275
17950;BME280;9100;48.700;9.316;2022-07-06T03:14:18;98334.2;;;19.04;88.521
17950;BME280;9100;48.700;9.316;2022-07-06T03:15:18;98342.4;;;19.01;88.351
17950;BME280;9100;48.700;9.316;2022-07-06T03:16:18;98340.7;;;18.95;89.325
17950;BME280;9100;48.700;9.316;2022-07-06T03:17:18;98343.1;;;18.9;91.028
17950;BME280;9100;48.700;9.316;2022-07-06T03:18:18;98342;;;18.86;91.972
17950;BME280;9100;48.700;9.316;2022-07-06T03:18:41;98344.8;;;18.84;92.144
17950;BME280;9100;48.700;9.316;2022-07-06T03:19:18;98291.7;;;18.51;92.419
17950;BME280;9100;48.700;9.316;2022-07-06T03:20:18;98340.8;;;18.82;93.274
17950;BME280;9100;48.700;9.316;2022-07-06T03:21:18;98349;;;18.79;94.159
17950;BME280;9100;48.700;9.316;2022-07-06T03:22:18;98352;;;18.76;94.433
17950;BME280;9100;48.700;9.316;2022-07-06T03:23:18;98350.09999999999;;;18.71;94.563
17950;BME280;9100;48.700;9.316;2022-07-06T03:23:41;98344.9;;;18.71;94.779
17950;BME280;9100;48.700;9.316;2022-07-06T03:24:18;98348.5;;;18.7;95.094
17950;BME280;9100;48.700;9.316;2022-07-06T03:25:18;98348.90000000001;;;18.67;94.923
17950;BME280;9100;48.700;9.316;2022-07-06T03:26:18;98348.29999999999;;;18.65;95.449
17950;BME280;9100;48.700;9.316;2022-07-06T03:27:18;98341.8;;;18.63;95.532
17950;BME280;9100;48.700;9.316;2022-07-06T03:28:18;98346.40000000001;;;18.61;95.918
17950;BME280;9100;48.700;9.316;2022-07-06T03:28:41;98347.40000000001;;;18.6;96.002
17950;BME280;9100;48.700;9.316;2022-07-06T03:29:18;98351;;;18.59;96.119
17950;BME280;9100;48.700;9.316;2022-07-06T03:30:18;98344.2;;;18.58;96.421
17950;BME280;9100;48.700;9.316;2022-07-06T03:31:18;98342.7;;;18.57;96.601
17950;BME280;9100;48.700;9.316;2022-07-06T03:32:18;98344.6;;;18.55;97.116
17950;BME280;9100;48.700;9.316;2022-07-06T03:33:18;98343;;;18.54;97.049
17950;BME280;9100;48.700;9.316;2022-07-06T03:33:41;98347.2;;;18.55;97.17
17950;BME280;9100;48.700;9.316;2022-07-06T03:34:18;98344.6;;;18.55;97.3
17950;BME280;9100;48.700;9.316;2022-07-06T03:35:19;98350.59999999999;;;18.55;97.248
17950;BME280;9100;48.700;9.316;2022-07-06T03:36:18;98350.59999999999;;;18.55;97.193
17950;BME280;9100;48.700;9.316;2022-07-06T03:37:18;98354;;;18.56;97.118
17950;BME280;9100;48.700;9.316;2022-07-06T03:38:18;98353.4;;;18.54;96.551
17950;BME280;9100;48.700;9.316;2022-07-06T03:38:41;98351.59999999999;;;18.54;96.055
17950;BME280;9100;48.700;9.316;2022-07-06T03:39:18;98351.59999999999;;;18.54;95.578
17950;BME280;9100;48.700;9.316;2022-07-06T03:40:18;98355.2;;;18.53;94.818
17950;BME280;9100;48.700;9.316;2022-07-06T03:41:18;98353.59999999999;;;18.52;94.892
17950;BME280;9100;48.700;9.316;2022-07-06T03:42:18;98355.2;;;18.53;95.392
17950;BME280;9100;48.700;9.316;2022-07-06T03:43:18;98354.4;;;18.53;94.881
17950;BME280;9100;48.700;9.316;2022-07-06T03:43:41;98354.6;;;18.51;95.149
17950;BME280;9100;48.700;9.316;2022-07-06T03:44:18;98351.8;;;18.53;95.162
17950;BME280;9100;48.700;9.316;2022-07-06T03:45:18;98350.3;;;18.52;94.392
17950;BME280;9100;48.700;9.316;2022-07-06T03:46:18;98353.8;;;18.51;94.498
17950;BME280;9100;48.700;9.316;2022-07-06T03:47:18;98351.2;;;18.51;94.617
17950;BME280;9100;48.700;9.316;2022-07-06T03:48:18;98348.6;;;18.51;94.617
17950;BME280;9100;48.700;9.316;2022-07-06T03:48:41;98354;;;18.49;94.452
17950;BME280;9100;48.700;9.316;2022-07-06T03:49:18;98359;;;18.51;93.989
17950;BME280;9100;48.700;9.316;2022-07-06T03:50:18;98350.59999999999;;;18.49;94.006
17950;BME280;9100;48.700;9.316;2022-07-06T03:51:18;98352.59999999999;;;18.47;93.991
17950;BME280;9100;48.700;9.316;2022-07-06T03:52:18;98352.09999999999;;;18.45;94.117
17950;BME280;9100;48.700;9.316;2022-07-06T03:53:18;98349.5;;;18.45;94.085
17950;BME280;9100;48.700;9.316;2022-07-06T03:53:41;98357.3;;;18.45;94.355
17950;BME280;9100;48.700;9.316;2022-07-06T03:54:18;98356.3;;;18.46;94.304
17950;BME280;9100;48.700;9.316;2022-07-06T03:55:18;98354.7;;;18.45;94.182
17950;BME280;9100;48.700;9.316;2022-07-06T03:56:18;98355.9;;;18.42;94.414
17950;BME280;9100;48.700;9.316;2022-07-06T03:57:19;98359.1;;;18.37;94.33
17950;BME280;9100;48.700;9.316;2022-07-06T03:58:18;98352.3;;;18.36;94.793
17950;BME280;9100;48.700;9.316;2022-07-06T03:58:41;98358.3;;;18.37;94.891
17950;BME280;9100;48.700;9.316;2022-07-06T03:59:18;98360.90000000001;;;18.37;95.237
17950;BME280;9100;48.700;9.316;2022-07-06T04:00:18;98349.7;;;18.36;95.725
17950;BME280;9100;48.700;9.316;2022-07-06T04:01:18;98358.3;;;18.37;96.125
17950;BME280;9100;48.700;9.316;2022-07-06T04:02:18;98354.1;;;18.36;96.123
17950;BME280;9100;48.700;9.316;2022-07-06T04:03:18;98354.4;;;18.34;95.632
17950;BME280;9100;48.700;9.316;2022-07-06T04:03:41;98355.3;;;18.33;95.588
17950;BME280;9100;48.700;9.316;2022-07-06T04:04:18;98355.9;;;18.35;95.549
17950;BME280;9100;48.700;9.316;2022-07-06T04:05:18;98358.5;;;18.35;95.917
17950;BME280;9100;48.700;9.316;2022-07-06T04:06:18;98357.5;;;18.36;96.287
17950;BME280;9100;48.700;9.316;2022-07-06T04:07:18;98354.4;;;18.34;95.924
17950;BME280;9100;48.700;9.316;2022-07-06T04:08:18;98357.9;;;18.33;95.339
17950;BME280;9100;48.700;9.316;2022-07-06T04:08:41;98358.7;;;18.34;95.101
17950;BME280;9100;48.700;9.316;2022-07-06T04:09:18;98356.9;;;18.34;95.09
17950;BME280;9100;48.700;9.316;2022-07-06T04:10:18;98361.1;;;18.35;95.776
17950;BME280;9100;48.700;9.316;2022-07-06T04:11:18;98356.9;;;18.34;96.616
17950;BME280;9100;48.700;9.316;2022-07-06T04:12:18;98329;;;18.12;97.228
17950;BME280;9100;48.700;9.316;2022-07-06T04:13:18;98363.5;;;18.3;97.604
17950;BME280;9100;48.700;9.316;2022-07-06T04:13:41;98360.29999999999;;;18.28;97.643
17950;BME280;9100;48.700;9.316;2022-07-06T04:14:18;98367.9;;;18.3;97.409
17950;BME280;9100;48.700;9.316;2022-07-06T04:15:18;98369.1;;;18.27;97.329
17950;BME280;9100;48.700;9.316;2022-07-06T04:16:18;98368.1;;;18.28;97.61
17950;BME280;9100;48.700;9.316;2022-07-06T04:17:18;98369.1;;;18.27;97.025
17950;BME280;9100;48.700;9.316;2022-07-06T04:18:18;98368.1;;;18.28;96.799
17950;BME280;9100;48.700;9.316;2022-07-06T04:18:41;98368.9;;;18.29;96.757
17950;BME280;9100;48.700;9.316;2022-07-06T04:19:18;98367.9;;;18.3;96.002
17950;BME280;9100;48.700;9.316;2022-07-06T04:20:19;98364.3;;;18.31;95.906
17950;BME280;9100;48.700;9.316;2022-07-06T04:21:19;98364.3;;;18.31;95.755
17950;BME280;9100;48.700;9.316;2022-07-06T04:22:18;98370.3;;;18.31;95.897
17950;BME280;9100;48.700;9.316;2022-07-06T04:23:18;98375.5;;;18.31;96.558
17950;BME280;9100;48.700;9.316;2022-07-06T04:23:41;98366.7;;;18.32;96.417